sensor_id;sensor_type;location;lat;lon;timestamp;P1;durP1;ratioP1;P2;durP2;ratioP2
2538;SDS011;1280;49.760;9.664;2024-02-28T00:00:15;27.00;;;15.90;;
2538;SDS011;1280;49.760;9.664;2024-02-28T00:02:47;22.87;;;16.03;;
2538;SDS011;1280;49.760;9.664;2024-02-28T00:05:16;24.07;;;17.27;;
2538;SDS011;1280;49.760;9.664;2024-02-28T00:07:45;25.37;;;15.63;;
2538;SDS011;1280;49.760;9.664;2024-02-28T00:10:17;22.00;;;15.57;;
2538;SDS011;1280;49.760;9.664;2024-02-28T00:12:58;24.07;;;18.03;;
2538;SDS011;1280;49.760;9.664;2024-02-28T00:15:28;22.70;;;15.40;;
2538;SDS011;1280;49.760;9.664;2024-02-28T00:17:58;26.37;;;16.80;;
2538;SDS011;1280;49.760;9.664;2024-02-28T00:20:27;23.40;;;14.83;;
2538;SDS011;1280;49.760;9.664;2024-02-28T00:22:57;22.13;;;14.50;;
2538;SDS011;1280;49.760;9.664;2024-02-28T00:25:27;24.30;;;14.67;;
2538;SDS011;1280;49.760;9.664;2024-02-28T00:28:00;22.97;;;15.60;;
2538;SDS011;1280;49.760;9.664;2024-02-28T00:30:39;25.80;;;15.93;;
2538;SDS011;1280;49.760;9.664;2024-02-28T00:33:09;28.03;;;16.70;;
2538;SDS011;1280;49.760;9.664;2024-02-28T00:35:39;26.07;;;16.80;;
2538;SDS011;1280;49.760;9.664;2024-02-28T00:38:09;28.83;;;19.50;;
2538;SDS011;1280;49.760;9.664;2024-02-28T00:40:38;47.20;;;27.93;;
2538;SDS011;1280;49.760;9.664;2024-02-28T00:43:09;29.40;;;19.53;;
2538;SDS011;1280;49.760;9.664;2024-02-28T00:45:38;31.90;;;19.57;;
2538;SDS011;1280;49.760;9.664;2024-02-28T00:48:09;32.83;;;19.57;;
2538;SDS011;1280;49.760;9.664;2024-02-28T00:50:38;30.67;;;18.10;;
2538;SDS011;1280;49.760;9.664;2024-02-28T00:53:07;28.30;;;17.37;;
2538;SDS011;1280;49.760;9.664;2024-02-28T00:55:36;26.33;;;16.90;;
2538;SDS011;1280;49.760;9.664;2024-02-28T00:58:09;21.57;;;15.00;;
2538;SDS011;1280;49.760;9.664;2024-02-28T01:00:37;28.53;;;16.63;;
2538;SDS011;1280;49.760;9.664;2024-02-28T01:03:08;29.80;;;19.03;;
2538;SDS011;1280;49.760;9.664;2024-02-28T01:05:38;31.10;;;19.00;;
2538;SDS011;1280;49.760;9.664;2024-02-28T01:08:07;27.37;;;18.20;;
2538;SDS011;1280;49.760;9.664;2024-02-28T01:10:35;25.93;;;17.53;;
2538;SDS011;1280;49.760;9.664;2024-02-28T01:13:04;29.50;;;18.27;;
2538;SDS011;1280;49.760;9.664;2024-02-28T01:15:34;27.93;;;17.97;;
2538;SDS011;1280;49.760;9.664;2024-02-28T01:18:05;27.93;;;17.90;;
2538;SDS011;1280;49.760;9.664;2024-02-28T01:20:34;28.43;;;17.17;;
2538;SDS011;1280;49.760;9.664;2024-02-28T01:23:03;26.43;;;16.60;;
2538;SDS011;1280;49.760;9.664;2024-02-28T01:25:34;25.60;;;18.27;;
2538;SDS011;1280;49.760;9.664;2024-02-28T01:28:04;27.50;;;17.37;;
2538;SDS011;1280;49.760;9.664;2024-02-28T01:30:36;27.30;;;18.27;;
2538;SDS011;1280;49.760;9.664;2024-02-28T01:33:06;27.87;;;19.00;;
2538;SDS011;1280;49.760;9.664;2024-02-28T01:35:34;29.37;;;17.57;;
2538;SDS011;1280;49.760;9.664;2024-02-28T01:38:03;29.80;;;18.70;;
2538;SDS011;1280;49.760;9.664;2024-02-28T01:40:32;23.47;;;15.50;;
2538;SDS011;1280;49.760;9.664;2024-02-28T01:43:06;25.70;;;16.97;;
2538;SDS011;1280;49.760;9.664;2024-02-28T01:45:37;24.10;;;15.40;;
2538;SDS011;1280;49.760;9.664;2024-02-28T01:48:06;25.37;;;16.70;;
2538;SDS011;1280;49.760;9.664;2024-02-28T01:50:39;27.00;;;17.13;;
2538;SDS011;1280;49.760;9.664;2024-02-28T01:53:17;26.13;;;17.03;;
2538;SDS011;1280;49.760;9.664;2024-02-28T01:55:47;26.43;;;16.00;;
2538;SDS011;1280;49.760;9.664;2024-02-28T01:58:16;26.10;;;17.57;;
2538;SDS011;1280;49.760;9.664;2024-02-28T02:00:46;24.73;;;16.17;;
2538;SDS011;1280;49.760;9.664;2024-02-28T02:03:17;23.87;;;16.20;;
2538;SDS011;1280;49.760;9.664;2024-02-28T02:05:45;24.93;;;17.20;;
2538;SDS011;1280;49.760;9.664;2024-02-28T02:08:13;23.87;;;17.50;;
2538;SDS011;1280;49.760;9.664;2024-02-28T02:10:42;23.57;;;16.43;;
2538;SDS011;1280;49.760;9.664;2024-02-28T02:13:10;21.20;;;15.37;;
2538;SDS011;1280;49.760;9.664;2024-02-28T02:15:39;25.10;;;17.30;;
2538;SDS011;1280;49.760;9.664;2024-02-28T02:18:09;25.37;;;16.70;;
2538;SDS011;1280;49.760;9.664;2024-02-28T02:20:40;23.83;;;16.50;;
2538;SDS011;1280;49.760;9.664;2024-02-28T02:23:16;26.40;;;17.00;;
2538;SDS011;1280;49.760;9.664;2024-02-28T02:25:45;31.03;;;18.50;;
2538;SDS011;1280;49.760;9.664;2024-02-28T02:28:14;28.10;;;19.63;;
2538;SDS011;1280;49.760;9.664;2024-02-28T02:30:44;30.40;;;19.80;;
2538;SDS011;1280;49.760;9.664;2024-02-28T02:33:14;30.63;;;19.83;;
2538;SDS011;1280;49.760;9.664;2024-02-28T02:35:43;33.50;;;21.67;;
2538;SDS011;1280;49.760;9.664;2024-02-28T02:38:16;31.40;;;20.73;;
2538;SDS011;1280;49.760;9.664;2024-02-28T02:40:47;32.43;;;19.20;;
2538;SDS011;1280;49.760;9.664;2024-02-28T02:43:16;34.53;;;20.07;;
2538;SDS011;1280;49.760;9.664;2024-02-28T02:45:46;31.67;;;18.90;;
2538;SDS011;1280;49.760;9.664;2024-02-28T02:48:15;30.03;;;19.20;;
2538;SDS011;1280;49.760;9.664;2024-02-28T02:50:45;29.03;;;19.17;;
2538;SDS011;1280;49.760;9.664;2024-02-28T02:53:13;32.50;;;21.40;;
2538;SDS011;1280;49.760;9.664;2024-02-28T02:55:44;30.53;;;19.20;;
2538;SDS011;1280;49.760;9.664;2024-02-28T02:58:16;30.23;;;19.10;;
2538;SDS011;1280;49.760;9.664;2024-02-28T03:00:45;32.23;;;20.90;;
2538;SDS011;1280;49.760;9.664;2024-02-28T03:03:14;30.53;;;19.97;;
2538;SDS011;1280;49.760;9.664;2024-02-28T03:05:42;30.30;;;19.70;;
2538;SDS011;1280;49.760;9.664;2024-02-28T03:08:11;28.77;;;19.60;;
2538;SDS011;1280;49.760;9.664;2024-02-28T03:10:40;31.93;;;21.10;;
2538;SDS011;1280;49.760;9.664;2024-02-28T03:13:11;31.60;;;19.03;;
2538;SDS011;1280;49.760;9.664;2024-02-28T03:15:39;31.73;;;18.50;;
2538;SDS011;1280;49.760;9.664;2024-02-28T03:18:08;35.60;;;21.10;;
2538;SDS011;1280;49.760;9.664;2024-02-28T03:20:38;38.07;;;20.33;;
2538;SDS011;1280;49.760;9.664;2024-02-28T03:23:07;46.43;;;24.40;;
2538;SDS011;1280;49.760;9.664;2024-02-28T03:25:36;38.13;;;20.53;;
2538;SDS011;1280;49.760;9.664;2024-02-28T03:28:05;36.33;;;20.83;;
2538;SDS011;1280;49.760;9.664;2024-02-28T03:30:35;43.90;;;24.63;;
2538;SDS011;1280;49.760;9.664;2024-02-28T03:33:03;38.97;;;21.87;;
2538;SDS011;1280;49.760;9.664;2024-02-28T03:35:33;50.90;;;28.93;;
2538;SDS011;1280;49.760;9.664;2024-02-28T03:38:03;36.20;;;21.73;;
2538;SDS011;1280;49.760;9.664;2024-02-28T03:40:33;33.30;;;19.97;;
2538;SDS011;1280;49.760;9.664;2024-02-28T03:43:01;36.67;;;20.93;;
2538;SDS011;1280;49.760;9.664;2024-02-28T03:45:30;31.53;;;19.83;;
2538;SDS011;1280;49.760;9.664;2024-02-28T03:48:07;33.83;;;19.70;;
2538;SDS011;1280;49.760;9.664;2024-02-28T03:50:39;40.67;;;23.00;;
2538;SDS011;1280;49.760;9.664;2024-02-28T03:53:08;38.63;;;23.03;;
2538;SDS011;1280;49.760;9.664;2024-02-28T03:55:37;37.10;;;22.13;;
2538;SDS011;1280;49.760;9.664;2024-02-28T03:58:06;35.03;;;21.30;;
2538;SDS011;1280;49.760;9.664;2024-02-28T04:00:35;36.37;;;20.10;;
2538;SDS011;1280;49.760;9.664;2024-02-28T04:03:08;41.27;;;22.43;;
2538;SDS011;1280;49.760;9.664;2024-02-28T04:05:36;36.70;;;21.33;;
2538;SDS011;1280;49.760;9.664;2024-02-28T04:08:06;43.50;;;23.77;;
2538;SDS011;1280;49.760;9.664;2024-02-28T04:10:34;57.00;;;30.03;;
2538;SDS011;1280;49.760;9.664;2024-02-28T04:13:03;37.65;;;22.02;;
2538;SDS011;1280;49.760;9.664;2024-02-28T04:15:32;44.55;;;23.23;;
2538;SDS011;1280;49.760;9.664;2024-02-28T04:18:02;47.50;;;24.60;;
2538;SDS011;1280;49.760;9.664;2024-02-28T04:20:34;45.07;;;24.53;;
2538;SDS011;1280;49.760;9.664;2024-02-28T04:23:06;37.70;;;22.00;;
2538;SDS011;1280;49.760;9.664;2024-02-28T04:25:38;48.60;;;26.40;;
2538;SDS011;1280;49.760;9.664;2024-02-28T04:28:08;36.80;;;21.50;;
2538;SDS011;1280;49.760;9.664;2024-02-28T04:30:36;34.97;;;21.07;;
2538;SDS011;1280;49.760;9.664;2024-02-28T04:33:08;30.00;;;18.77;;
2538;SDS011;1280;49.760;9.664;2024-02-28T04:35:44;38.50;;;20.73;;
2538;SDS011;1280;49.760;9.664;2024-02-28T04:38:15;49.27;;;26.63;;
2538;SDS011;1280;49.760;9.664;2024-02-28T04:40:43;45.30;;;24.33;;
2538;SDS011;1280;49.760;9.664;2024-02-28T04:43:13;42.43;;;24.87;;
2538;SDS011;1280;49.760;9.664;2024-02-28T04:45:42;51.93;;;28.07;;
2538;SDS011;1280;49.760;9.664;2024-02-28T04:48:11;37.33;;;21.63;;
2538;SDS011;1280;49.760;9.664;2024-02-28T04:50:41;34.50;;;20.43;;
2538;SDS011;1280;49.760;9.664;2024-02-28T04:53:12;36.50;;;20.50;;
2538;SDS011;1280;49.760;9.664;2024-02-28T04:55:40;33.75;;;21.08;;
2538;SDS011;1280;49.760;9.664;2024-02-28T04:58:08;37.13;;;20.43;;
2538;SDS011;1280;49.760;9.664;2024-02-28T05:00:37;33.80;;;19.03;;
2538;SDS011;1280;49.760;9.664;2024-02-28T05:03:06;36.40;;;21.40;;
2538;SDS011;1280;49.760;9.664;2024-02-28T05:05:35;33.70;;;20.67;;
2538;SDS011;1280;49.760;9.664;2024-02-28T05:08:06;31.53;;;19.60;;
2538;SDS011;1280;49.760;9.664;2024-02-28T05:10:36;37.30;;;21.20;;
2538;SDS011;1280;49.760;9.664;2024-02-28T05:13:11;35.23;;;22.87;;
2538;SDS011;1280;49.760;9.664;2024-02-28T05:15:41;37.83;;;21.27;;
2538;SDS011;1280;49.760;9.664;2024-02-28T05:18:09;35.43;;;22.13;;
2538;SDS011;1280;49.760;9.664;2024-02-28T05:20:38;38.07;;;21.10;;
2538;SDS011;1280;49.760;9.664;2024-02-28T05:23:10;35.73;;;20.73;;
2538;SDS011;1280;49.760;9.664;2024-02-28T05:25:39;42.27;;;21.60;;
2538;SDS011;1280;49.760;9.664;2024-02-28T05:28:12;34.83;;;20.50;;
2538;SDS011;1280;49.760;9.664;2024-02-28T05:30:49;30.57;;;19.33;;
2538;SDS011;1280;49.760;9.664;2024-02-28T05:33:18;32.03;;;18.40;;
2538;SDS011;1280;49.760;9.664;2024-02-28T05:35:47;36.73;;;19.73;;
2538;SDS011;1280;49.760;9.664;2024-02-28T05:38:18;35.40;;;20.52;;
2538;SDS011;1280;49.760;9.664;2024-02-28T05:40:46;32.27;;;20.50;;
2538;SDS011;1280;49.760;9.664;2024-02-28T05:43:15;35.47;;;20.40;;
2538;SDS011;1280;49.760;9.664;2024-02-28T05:45:47;33.23;;;21.00;;
2538;SDS011;1280;49.760;9.664;2024-02-28T05:48:15;32.53;;;19.40;;
2538;SDS011;1280;49.760;9.664;2024-02-28T05:50:45;35.20;;;21.40;;
2538;SDS011;1280;49.760;9.664;2024-02-28T05:53:14;33.20;;;21.10;;
2538;SDS011;1280;49.760;9.664;2024-02-28T05:55:45;36.08;;;20.02;;
2538;SDS011;1280;49.760;9.664;2024-02-28T05:58:14;32.83;;;19.67;;
2538;SDS011;1280;49.760;9.664;2024-02-28T06:00:45;34.27;;;19.80;;
2538;SDS011;1280;49.760;9.664;2024-02-28T06:03:15;34.27;;;19.70;;
2538;SDS011;1280;49.760;9.664;2024-02-28T06:05:44;32.33;;;19.40;;
2538;SDS011;1280;49.760;9.664;2024-02-28T06:08:14;36.00;;;20.50;;
2538;SDS011;1280;49.760;9.664;2024-02-28T06:10:42;36.87;;;20.53;;
2538;SDS011;1280;49.760;9.664;2024-02-28T06:13:16;35.37;;;20.90;;
2538;SDS011;1280;49.760;9.664;2024-02-28T06:15:45;37.47;;;21.90;;
2538;SDS011;1280;49.760;9.664;2024-02-28T06:18:19;28.53;;;18.57;;
2538;SDS011;1280;49.760;9.664;2024-02-28T06:20:50;31.77;;;18.77;;
2538;SDS011;1280;49.760;9.664;2024-02-28T06:23:19;33.50;;;20.17;;
2538;SDS011;1280;49.760;9.664;2024-02-28T06:25:55;30.03;;;19.77;;
2538;SDS011;1280;49.760;9.664;2024-02-28T06:28:25;36.07;;;20.20;;
2538;SDS011;1280;49.760;9.664;2024-02-28T06:30:53;35.90;;;18.80;;
2538;SDS011;1280;49.760;9.664;2024-02-28T06:33:22;30.70;;;18.83;;
2538;SDS011;1280;49.760;9.664;2024-02-28T06:35:50;28.30;;;18.50;;
2538;SDS011;1280;49.760;9.664;2024-02-28T06:38:18;30.20;;;17.30;;
2538;SDS011;1280;49.760;9.664;2024-02-28T06:40:46;28.40;;;19.30;;
2538;SDS011;1280;49.760;9.664;2024-02-28T06:43:14;31.50;;;18.33;;
2538;SDS011;1280;49.760;9.664;2024-02-28T06:45:43;27.60;;;17.13;;
2538;SDS011;1280;49.760;9.664;2024-02-28T06:48:11;37.00;;;18.60;;
2538;SDS011;1280;49.760;9.664;2024-02-28T06:50:40;31.63;;;17.90;;
2538;SDS011;1280;49.760;9.664;2024-02-28T06:53:08;31.30;;;18.00;;
2538;SDS011;1280;49.760;9.664;2024-02-28T06:55:36;27.57;;;17.60;;
2538;SDS011;1280;49.760;9.664;2024-02-28T06:58:04;32.10;;;18.33;;
2538;SDS011;1280;49.760;9.664;2024-02-28T07:00:32;28.37;;;17.77;;
2538;SDS011;1280;49.760;9.664;2024-02-28T07:03:01;30.90;;;18.23;;
2538;SDS011;1280;49.760;9.664;2024-02-28T07:05:30;27.40;;;17.37;;
2538;SDS011;1280;49.760;9.664;2024-02-28T07:07:59;25.10;;;16.67;;
2538;SDS011;1280;49.760;9.664;2024-02-28T07:10:28;30.52;;;17.80;;
2538;SDS011;1280;49.760;9.664;2024-02-28T07:12:56;31.63;;;18.40;;
2538;SDS011;1280;49.760;9.664;2024-02-28T07:15:24;30.20;;;18.37;;
2538;SDS011;1280;49.760;9.664;2024-02-28T07:17:52;29.77;;;17.50;;
2538;SDS011;1280;49.760;9.664;2024-02-28T07:20:21;32.60;;;16.40;;
2538;SDS011;1280;49.760;9.664;2024-02-28T07:22:50;29.80;;;17.87;;
2538;SDS011;1280;49.760;9.664;2024-02-28T07:25:18;25.40;;;15.83;;
2538;SDS011;1280;49.760;9.664;2024-02-28T07:27:49;28.50;;;18.13;;
2538;SDS011;1280;49.760;9.664;2024-02-28T07:30:18;27.07;;;16.90;;
2538;SDS011;1280;49.760;9.664;2024-02-28T07:32:46;30.07;;;17.40;;
2538;SDS011;1280;49.760;9.664;2024-02-28T07:35:16;30.73;;;18.00;;
2538;SDS011;1280;49.760;9.664;2024-02-28T07:37:46;28.30;;;16.83;;
2538;SDS011;1280;49.760;9.664;2024-02-28T07:40:14;26.50;;;16.23;;
2538;SDS011;1280;49.760;9.664;2024-02-28T07:42:42;28.50;;;16.97;;
2538;SDS011;1280;49.760;9.664;2024-02-28T07:45:10;26.27;;;16.70;;
2538;SDS011;1280;49.760;9.664;2024-02-28T07:47:38;26.37;;;16.27;;
2538;SDS011;1280;49.760;9.664;2024-02-28T07:50:06;28.40;;;16.83;;
2538;SDS011;1280;49.760;9.664;2024-02-28T07:52:35;27.23;;;17.27;;
2538;SDS011;1280;49.760;9.664;2024-02-28T07:55:06;25.67;;;16.47;;
2538;SDS011;1280;49.760;9.664;2024-02-28T07:57:34;26.90;;;17.07;;
2538;SDS011;1280;49.760;9.664;2024-02-28T08:00:02;27.50;;;17.00;;
2538;SDS011;1280;49.760;9.664;2024-02-28T08:02:37;26.20;;;15.80;;
2538;SDS011;1280;49.760;9.664;2024-02-28T08:05:06;27.50;;;16.50;;
2538;SDS011;1280;49.760;9.664;2024-02-28T08:07:34;28.97;;;16.87;;
2538;SDS011;1280;49.760;9.664;2024-02-28T08:10:02;31.97;;;18.43;;
2538;SDS011;1280;49.760;9.664;2024-02-28T08:12:34;27.63;;;16.97;;
2538;SDS011;1280;49.760;9.664;2024-02-28T08:15:02;27.17;;;16.90;;
2538;SDS011;1280;49.760;9.664;2024-02-28T08:17:30;27.90;;;16.47;;
2538;SDS011;1280;49.760;9.664;2024-02-28T08:19:58;26.48;;;16.75;;
2538;SDS011;1280;49.760;9.664;2024-02-28T08:22:26;24.40;;;16.00;;
2538;SDS011;1280;49.760;9.664;2024-02-28T08:24:55;29.40;;;16.63;;
2538;SDS011;1280;49.760;9.664;2024-02-28T08:27:24;27.73;;;16.47;;
2538;SDS011;1280;49.760;9.664;2024-02-28T08:29:55;27.33;;;17.13;;
2538;SDS011;1280;49.760;9.664;2024-02-28T08:32:23;23.80;;;14.47;;
2538;SDS011;1280;49.760;9.664;2024-02-28T08:34:51;27.20;;;17.13;;
2538;SDS011;1280;49.760;9.664;2024-02-28T08:37:20;28.87;;;17.40;;
2538;SDS011;1280;49.760;9.664;2024-02-28T08:39:48;23.00;;;15.03;;
2538;SDS011;1280;49.760;9.664;2024-02-28T08:42:16;23.30;;;14.47;;
2538;SDS011;1280;49.760;9.664;2024-02-28T08:44:44;23.27;;;15.30;;
2538;SDS011;1280;49.760;9.664;2024-02-28T08:47:15;28.60;;;16.07;;
2538;SDS011;1280;49.760;9.664;2024-02-28T08:49:45;32.40;;;19.40;;
2538;SDS011;1280;49.760;9.664;2024-02-28T08:52:12;24.10;;;15.40;;
2538;SDS011;1280;49.760;9.664;2024-02-28T08:54:40;27.23;;;17.40;;
2538;SDS011;1280;49.760;9.664;2024-02-28T08:57:09;30.97;;;17.07;;
2538;SDS011;1280;49.760;9.664;2024-02-28T08:59:37;26.73;;;17.17;;
2538;SDS011;1280;49.760;9.664;2024-02-28T09:02:06;27.83;;;16.77;;
2538;SDS011;1280;49.760;9.664;2024-02-28T09:04:36;35.93;;;21.43;;
2538;SDS011;1280;49.760;9.664;2024-02-28T09:07:03;36.50;;;19.40;;
2538;SDS011;1280;49.760;9.664;2024-02-28T09:09:31;25.60;;;16.53;;
2538;SDS011;1280;49.760;9.664;2024-02-28T09:12:04;29.73;;;17.40;;
2538;SDS011;1280;49.760;9.664;2024-02-28T09:14:32;26.40;;;15.53;;
2538;SDS011;1280;49.760;9.664;2024-02-28T09:17:00;28.80;;;16.50;;
2538;SDS011;1280;49.760;9.664;2024-02-28T09:19:30;36.80;;;21.50;;
2538;SDS011;1280;49.760;9.664;2024-02-28T09:21:59;33.43;;;16.90;;
2538;SDS011;1280;49.760;9.664;2024-02-28T09:24:27;23.33;;;14.10;;
2538;SDS011;1280;49.760;9.664;2024-02-28T09:26:54;18.90;;;11.63;;
2538;SDS011;1280;49.760;9.664;2024-02-28T09:29:22;20.03;;;12.60;;
2538;SDS011;1280;49.760;9.664;2024-02-28T09:31:50;18.50;;;12.20;;
2538;SDS011;1280;49.760;9.664;2024-02-28T09:34:19;21.23;;;13.87;;
2538;SDS011;1280;49.760;9.664;2024-02-28T09:36:47;17.67;;;11.90;;
2538;SDS011;1280;49.760;9.664;2024-02-28T09:39:18;19.57;;;11.97;;
2538;SDS011;1280;49.760;9.664;2024-02-28T09:41:48;19.77;;;11.80;;
2538;SDS011;1280;49.760;9.664;2024-02-28T09:44:16;20.30;;;12.77;;
2538;SDS011;1280;49.760;9.664;2024-02-28T09:46:45;21.27;;;13.43;;
2538;SDS011;1280;49.760;9.664;2024-02-28T09:49:15;22.53;;;11.67;;
2538;SDS011;1280;49.760;9.664;2024-02-28T09:51:43;26.77;;;13.93;;
2538;SDS011;1280;49.760;9.664;2024-02-28T09:54:15;19.83;;;12.83;;
2538;SDS011;1280;49.760;9.664;2024-02-28T09:56:46;22.93;;;13.00;;
2538;SDS011;1280;49.760;9.664;2024-02-28T09:59:17;21.27;;;12.90;;
2538;SDS011;1280;49.760;9.664;2024-02-28T10:01:53;20.37;;;11.03;;
2538;SDS011;1280;49.760;9.664;2024-02-28T10:04:23;18.10;;;11.23;;
2538;SDS011;1280;49.760;9.664;2024-02-28T10:06:54;17.53;;;10.17;;
2538;SDS011;1280;49.760;9.664;2024-02-28T10:09:25;23.03;;;11.10;;
2538;SDS011;1280;49.760;9.664;2024-02-28T10:11:54;17.53;;;11.23;;
2538;SDS011;1280;49.760;9.664;2024-02-28T10:14:21;18.67;;;11.50;;
2538;SDS011;1280;49.760;9.664;2024-02-28T10:16:50;15.20;;;10.17;;
2538;SDS011;1280;49.760;9.664;2024-02-28T10:19:18;16.17;;;10.83;;
2538;SDS011;1280;49.760;9.664;2024-02-28T10:21:46;16.67;;;11.30;;
2538;SDS011;1280;49.760;9.664;2024-02-28T10:24:14;17.00;;;10.10;;
2538;SDS011;1280;49.760;9.664;2024-02-28T10:26:44;15.17;;;9.23;;
2538;SDS011;1280;49.760;9.664;2024-02-28T10:29:15;25.57;;;12.27;;
2538;SDS011;1280;49.760;9.664;2024-02-28T10:31:43;16.70;;;9.77;;
2538;SDS011;1280;49.760;9.664;2024-02-28T10:34:13;17.17;;;10.10;;
2538;SDS011;1280;49.760;9.664;2024-02-28T10:36:43;17.20;;;9.00;;
2538;SDS011;1280;49.760;9.664;2024-02-28T10:39:12;16.40;;;10.57;;
2538;SDS011;1280;49.760;9.664;2024-02-28T10:41:41;15.23;;;8.60;;
2538;SDS011;1280;49.760;9.664;2024-02-28T10:44:15;16.17;;;8.43;;
2538;SDS011;1280;49.760;9.664;2024-02-28T10:46:44;15.50;;;8.60;;
2538;SDS011;1280;49.760;9.664;2024-02-28T10:49:19;15.80;;;8.90;;
2538;SDS011;1280;49.760;9.664;2024-02-28T10:51:48;13.40;;;7.87;;
2538;SDS011;1280;49.760;9.664;2024-02-28T10:54:17;13.70;;;8.50;;
2538;SDS011;1280;49.760;9.664;2024-02-28T10:56:50;15.00;;;8.83;;
2538;SDS011;1280;49.760;9.664;2024-02-28T10:59:22;14.97;;;9.47;;
2538;SDS011;1280;49.760;9.664;2024-02-28T11:01:52;16.13;;;8.60;;
2538;SDS011;1280;49.760;9.664;2024-02-28T11:04:20;13.40;;;8.13;;
2538;SDS011;1280;49.760;9.664;2024-02-28T11:06:50;11.33;;;7.83;;
2538;SDS011;1280;49.760;9.664;2024-02-28T11:09:22;13.77;;;8.30;;
2538;SDS011;1280;49.760;9.664;2024-02-28T11:11:53;14.83;;;8.77;;
2538;SDS011;1280;49.760;9.664;2024-02-28T11:14:23;12.90;;;7.87;;
2538;SDS011;1280;49.760;9.664;2024-02-28T11:17:01;13.13;;;8.37;;
2538;SDS011;1280;49.760;9.664;2024-02-28T11:19:29;15.83;;;8.60;;
2538;SDS011;1280;49.760;9.664;2024-02-28T11:21:59;12.27;;;8.00;;
2538;SDS011;1280;49.760;9.664;2024-02-28T11:24:30;12.73;;;8.43;;
2538;SDS011;1280;49.760;9.664;2024-02-28T11:27:04;12.17;;;7.17;;
2538;SDS011;1280;49.760;9.664;2024-02-28T11:29:33;54.00;;;34.17;;
2538;SDS011;1280;49.760;9.664;2024-02-28T11:32:09;34.43;;;21.43;;
2538;SDS011;1280;49.760;9.664;2024-02-28T11:34:39;17.40;;;11.50;;
2538;SDS011;1280;49.760;9.664;2024-02-28T11:37:08;14.27;;;8.50;;
2538;SDS011;1280;49.760;9.664;2024-02-28T11:39:36;18.60;;;8.33;;
2538;SDS011;1280;49.760;9.664;2024-02-28T11:42:09;14.30;;;8.30;;
2538;SDS011;1280;49.760;9.664;2024-02-28T11:44:39;11.43;;;7.27;;
2538;SDS011;1280;49.760;9.664;2024-02-28T11:47:08;14.07;;;7.67;;
2538;SDS011;1280;49.760;9.664;2024-02-28T11:49:37;17.53;;;7.57;;
2538;SDS011;1280;49.760;9.664;2024-02-28T11:52:05;11.43;;;7.10;;
2538;SDS011;1280;49.760;9.664;2024-02-28T11:54:33;10.40;;;6.03;;
2538;SDS011;1280;49.760;9.664;2024-02-28T11:57:01;12.73;;;6.80;;
2538;SDS011;1280;49.760;9.664;2024-02-28T11:59:31;11.80;;;7.17;;
2538;SDS011;1280;49.760;9.664;2024-02-28T12:01:59;12.80;;;6.80;;
2538;SDS011;1280;49.760;9.664;2024-02-28T12:04:27;12.23;;;6.90;;
2538;SDS011;1280;49.760;9.664;2024-02-28T12:06:56;11.40;;;7.33;;
2538;SDS011;1280;49.760;9.664;2024-02-28T12:09:25;11.90;;;6.87;;
2538;SDS011;1280;49.760;9.664;2024-02-28T12:11:59;13.77;;;7.23;;
2538;SDS011;1280;49.760;9.664;2024-02-28T12:14:31;13.03;;;7.30;;
2538;SDS011;1280;49.760;9.664;2024-02-28T12:17:00;11.23;;;7.00;;
2538;SDS011;1280;49.760;9.664;2024-02-28T12:19:29;11.00;;;7.27;;
2538;SDS011;1280;49.760;9.664;2024-02-28T12:21:57;14.53;;;7.07;;
2538;SDS011;1280;49.760;9.664;2024-02-28T12:24:26;12.80;;;7.40;;
2538;SDS011;1280;49.760;9.664;2024-02-28T12:26:54;11.60;;;6.50;;
2538;SDS011;1280;49.760;9.664;2024-02-28T12:29:22;17.07;;;7.33;;
2538;SDS011;1280;49.760;9.664;2024-02-28T12:31:51;11.63;;;6.10;;
2538;SDS011;1280;49.760;9.664;2024-02-28T12:34:19;9.60;;;6.07;;
2538;SDS011;1280;49.760;9.664;2024-02-28T12:36:47;10.20;;;5.50;;
2538;SDS011;1280;49.760;9.664;2024-02-28T12:39:15;11.20;;;6.87;;
2538;SDS011;1280;49.760;9.664;2024-02-28T12:41:43;10.27;;;5.97;;
2538;SDS011;1280;49.760;9.664;2024-02-28T12:44:13;11.23;;;6.17;;
2538;SDS011;1280;49.760;9.664;2024-02-28T12:46:41;10.00;;;5.77;;
2538;SDS011;1280;49.760;9.664;2024-02-28T12:49:10;10.37;;;5.80;;
2538;SDS011;1280;49.760;9.664;2024-02-28T12:51:40;10.67;;;6.30;;
2538;SDS011;1280;49.760;9.664;2024-02-28T12:54:09;13.00;;;6.40;;
2538;SDS011;1280;49.760;9.664;2024-02-28T12:56:38;10.10;;;5.87;;
2538;SDS011;1280;49.760;9.664;2024-02-28T12:59:09;9.00;;;5.30;;
2538;SDS011;1280;49.760;9.664;2024-02-28T13:01:38;9.37;;;5.37;;
2538;SDS011;1280;49.760;9.664;2024-02-28T13:04:06;11.67;;;6.37;;
2538;SDS011;1280;49.760;9.664;2024-02-28T13:06:36;13.67;;;7.03;;
2538;SDS011;1280;49.760;9.664;2024-02-28T13:09:04;10.27;;;6.00;;
2538;SDS011;1280;49.760;9.664;2024-02-28T13:11:38;9.13;;;5.63;;
2538;SDS011;1280;49.760;9.664;2024-02-28T13:14:07;11.20;;;6.23;;
2538;SDS011;1280;49.760;9.664;2024-02-28T13:16:35;10.83;;;5.70;;
2538;SDS011;1280;49.760;9.664;2024-02-28T13:19:04;8.97;;;4.60;;
2538;SDS011;1280;49.760;9.664;2024-02-28T13:21:32;9.30;;;4.37;;
2538;SDS011;1280;49.760;9.664;2024-02-28T13:24:02;8.90;;;4.60;;
2538;SDS011;1280;49.760;9.664;2024-02-28T13:26:31;8.20;;;4.80;;
2538;SDS011;1280;49.760;9.664;2024-02-28T13:28:59;8.47;;;4.23;;
2538;SDS011;1280;49.760;9.664;2024-02-28T13:31:27;7.33;;;4.00;;
2538;SDS011;1280;49.760;9.664;2024-02-28T13:33:56;8.90;;;4.33;;
2538;SDS011;1280;49.760;9.664;2024-02-28T13:36:24;8.93;;;4.73;;
2538;SDS011;1280;49.760;9.664;2024-02-28T13:38:52;8.50;;;4.50;;
2538;SDS011;1280;49.760;9.664;2024-02-28T13:41:21;7.17;;;3.97;;
2538;SDS011;1280;49.760;9.664;2024-02-28T13:43:49;7.80;;;4.07;;
2538;SDS011;1280;49.760;9.664;2024-02-28T13:46:17;9.23;;;4.13;;
2538;SDS011;1280;49.760;9.664;2024-02-28T13:48:46;9.30;;;5.63;;
2538;SDS011;1280;49.760;9.664;2024-02-28T13:51:14;7.70;;;4.20;;
2538;SDS011;1280;49.760;9.664;2024-02-28T13:53:43;10.03;;;3.93;;
2538;SDS011;1280;49.760;9.664;2024-02-28T13:56:11;9.00;;;4.17;;
2538;SDS011;1280;49.760;9.664;2024-02-28T13:58:44;10.33;;;4.00;;
2538;SDS011;1280;49.760;9.664;2024-02-28T14:01:19;7.87;;;3.90;;
2538;SDS011;1280;49.760;9.664;2024-02-28T14:03:48;6.20;;;2.90;;
2538;SDS011;1280;49.760;9.664;2024-02-28T14:06:16;6.40;;;3.33;;
2538;SDS011;1280;49.760;9.664;2024-02-28T14:08:44;7.63;;;3.50;;
2538;SDS011;1280;49.760;9.664;2024-02-28T14:11:12;8.90;;;3.40;;
2538;SDS011;1280;49.760;9.664;2024-02-28T14:13:46;7.63;;;3.20;;
2538;SDS011;1280;49.760;9.664;2024-02-28T14:16:14;6.73;;;3.47;;
2538;SDS011;1280;49.760;9.664;2024-02-28T14:18:42;5.97;;;2.70;;
2538;SDS011;1280;49.760;9.664;2024-02-28T14:21:11;8.20;;;3.40;;
2538;SDS011;1280;49.760;9.664;2024-02-28T14:23:39;10.47;;;3.40;;
2538;SDS011;1280;49.760;9.664;2024-02-28T14:26:08;6.93;;;3.37;;
2538;SDS011;1280;49.760;9.664;2024-02-28T14:28:36;6.80;;;3.60;;
2538;SDS011;1280;49.760;9.664;2024-02-28T14:31:06;7.07;;;3.70;;
2538;SDS011;1280;49.760;9.664;2024-02-28T14:33:34;7.70;;;3.40;;
2538;SDS011;1280;49.760;9.664;2024-02-28T14:36:03;7.23;;;3.23;;
2538;SDS011;1280;49.760;9.664;2024-02-28T14:38:32;7.53;;;3.27;;
2538;SDS011;1280;49.760;9.664;2024-02-28T14:41:00;5.50;;;3.03;;
2538;SDS011;1280;49.760;9.664;2024-02-28T14:43:29;5.80;;;2.70;;
2538;SDS011;1280;49.760;9.664;2024-02-28T14:45:58;5.70;;;2.40;;
2538;SDS011;1280;49.760;9.664;2024-02-28T14:48:28;8.47;;;3.20;;
2538;SDS011;1280;49.760;9.664;2024-02-28T14:50:58;8.43;;;3.20;;
2538;SDS011;1280;49.760;9.664;2024-02-28T14:53:27;6.70;;;2.90;;
2538;SDS011;1280;49.760;9.664;2024-02-28T14:55:55;6.80;;;3.10;;
2538;SDS011;1280;49.760;9.664;2024-02-28T14:58:23;5.63;;;2.60;;
2538;SDS011;1280;49.760;9.664;2024-02-28T15:00:52;7.23;;;3.00;;
2538;SDS011;1280;49.760;9.664;2024-02-28T15:03:25;7.80;;;3.90;;
2538;SDS011;1280;49.760;9.664;2024-02-28T15:05:54;7.37;;;3.73;;